Marylhurst, OR

11:53 AM PDT on May 27, 2015 (GMT -0700)
Marylhurst University | | Change Station
CLOSE
Current Station
Personal Weather Station
Location: Lake Oswego, OR
Elevation: 130 ft
Nearby Weather Stations

Elev 130 ft 45.40 °N, 122.65 °W | Updated 16 seconds ago

Partly Cloudy
Partly Cloudy
67.3 °F
Feels Like 67.3 °F
N
0.0
Wind Variable Wind from ENE
Gusts 5.4 mph

Today
High -- | Low -- °F
--% Chance of Precip.
Yesterday
High -- | Low -- °F
Precip. -- in
5:29 AM 8:47 PM
Waxing Gibbous, 69% visible
Pressure 30.07 in
Visibility 10.0 miles
Clouds Few 2200 ft
Dew Point 67 °F
Humidity 98%
Rainfall 0.00 in
Snow Depth Not available.
UV 8 out of 12
Pollen 7.60 out of 12
Air Quality Not available.
Flu Activity No Activity
METAR KUAO 271753Z AUTO 36004KT 10SM FEW022 18/12 A3007 RMK AO2 SLP183 T01830117 10189 20094 56004

More Conditions Fewer Conditions

Pressure 30.07 in
Visibility 10.0 miles
Clouds Few 2200 ft
Dew Point 67 °F
Humidity 98%
Rainfall 0.00 in
Snow Depth Not available.
UV 8 out of 12
Pollen 7.60 out of 12
Air Quality Not available.
Flu Activity No Activity
METAR KUAO 271753Z AUTO 36004KT 10SM FEW022 18/12 A3007 RMK AO2 SLP183 T01830117 10189 20094 56004

More Conditions Fewer Conditions

10-Day Weather Forecast

Almanac

Astronomy

May. 27, 2015 Rise Set
Actual Time
Civil Twilight
Nautical Twilight
Astronomical Twilight
Moon
Length of Visible Light
Length of Day
Tomorrow will be .
, % of the Moon is Illuminated

Today's Extremes

State Highs State Lows

Community

WunderPhotos

Upload Photos

1,824,757 photos uploaded!

WunderBlogs® & News

Nearby

Air Quality

  Air Quality AQ Index Pollutant
Not available.

Snow Depth

Station Depth Elevation

Earthquake Activity

City Distance Mag. Time & Date
Minimum magnitude displayed is 2.5.

Coastal Water Temperatures

Place Temperature

Stations

Nearby Weather Stations

Station Location Temp. Windchill Dew Point Humidity Wind Precip. Elev Updated Type